Attalla, Alabama
Current Conditions -  °F | °C
As of 1:35 PM on Friday 24 Oct 2014 (Local Time) from KGAD Reporting Station
Clear Clear  
Wind Chill: 72°   Ceiling: Unl
Heat Index: 72°   Visibility: 10mi
Dew Point: 41°   Wind: 8mph
Humidity: 33%   Direction: 30°NNE
Pressure: 30.05"   Gusts: NA
Location:  34.02°N, 86.09°W
Report Text: KGAD 241835Z 03007KT 020V080 10SM CLR 22/05 A3005 RMK AO1
Loading
Personal Weather Stations






























Interactive Weather Map
Tropical Storm Tracking
New forecast layout! Learn more

10-Day Weather Forecast

Advertisements
Track Severe Weather on mobile